sensor_id;sensor_type;location;lat;lon;timestamp;P1;durP1;ratioP1;P2;durP2;ratioP2
33840;SDS011;20142;28.494;-16.312;2022-09-25T00:00:02;1054.70;;;32.97;;
33840;SDS011;20142;28.494;-16.312;2022-09-25T00:05:05;1265.70;;;39.40;;
33840;SDS011;20142;28.494;-16.312;2022-09-25T00:10:07;771.30;;;19.35;;
33840;SDS011;20142;28.494;-16.312;2022-09-25T00:15:10;1096.03;;;31.58;;
33840;SDS011;20142;28.494;-16.312;2022-09-25T00:20:12;1270.55;;;37.85;;
33840;SDS011;20142;28.494;-16.312;2022-09-25T00:25:16;537.88;;;18.42;;
33840;SDS011;20142;28.494;-16.312;2022-09-25T00:30:19;562.60;;;17.90;;
33840;SDS011;20142;28.494;-16.312;2022-09-25T00:35:21;710.67;;;22.50;;
33840;SDS011;20142;28.494;-16.312;2022-09-25T00:40:23;164.98;;;5.75;;
33840;SDS011;20142;28.494;-16.312;2022-09-25T00:45:25;495.65;;;16.85;;
33840;SDS011;20142;28.494;-16.312;2022-09-25T00:55:48;227.00;;;8.73;;
33840;SDS011;20142;28.494;-16.312;2022-09-25T01:00:50;179.25;;;7.53;;
33840;SDS011;20142;28.494;-16.312;2022-09-25T11:47:54;0.95;;;0.77;;
33840;SDS011;20142;28.494;-16.312;2022-09-25T12:14:04;0.85;;;0.70;;
33840;SDS011;20142;28.494;-16.312;2022-09-25T12:41:13;0.90;;;0.68;;
33840;SDS011;20142;28.494;-16.312;2022-09-25T12:46:31;1.23;;;0.75;;
33840;SDS011;20142;28.494;-16.312;2022-09-25T12:51:47;2.53;;;1.00;;
33840;SDS011;20142;28.494;-16.312;2022-09-25T13:07:50;1.58;;;1.05;;
33840;SDS011;20142;28.494;-16.312;2022-09-25T13:13:18;3.90;;;2.60;;
33840;SDS011;20142;28.494;-16.312;2022-09-25T13:18:30;5.65;;;3.13;;
33840;SDS011;20142;28.494;-16.312;2022-09-25T13:23:35;6.22;;;4.13;;
33840;SDS011;20142;28.494;-16.312;2022-09-25T13:28:52;3.75;;;2.85;;
33840;SDS011;20142;28.494;-16.312;2022-09-25T13:34:16;3.35;;;2.40;;
33840;SDS011;20142;28.494;-16.312;2022-09-25T13:39:24;3.65;;;2.10;;
33840;SDS011;20142;28.494;-16.312;2022-09-25T13:45:25;2.60;;;1.52;;
33840;SDS011;20142;28.494;-16.312;2022-09-25T13:50:28;2.23;;;1.50;;
33840;SDS011;20142;28.494;-16.312;2022-09-25T14:00:56;1.40;;;1.25;;
33840;SDS011;20142;28.494;-16.312;2022-09-25T14:05:59;1.90;;;1.10;;
33840;SDS011;20142;28.494;-16.312;2022-09-25T14:11:02;1.35;;;0.80;;
33840;SDS011;20142;28.494;-16.312;2022-09-25T14:16:09;3.15;;;2.55;;
33840;SDS011;20142;28.494;-16.312;2022-09-25T14:21:25;1.95;;;0.65;;
33840;SDS011;20142;28.494;-16.312;2022-09-25T14:26:28;0.77;;;0.47;;
33840;SDS011;20142;28.494;-16.312;2022-09-25T14:42:30;1.55;;;0.30;;
33840;SDS011;20142;28.494;-16.312;2022-09-25T14:47:54;0.40;;;0.40;;
33840;SDS011;20142;28.494;-16.312;2022-09-25T14:53:00;0.22;;;0.22;;
33840;SDS011;20142;28.494;-16.312;2022-09-25T14:58:09;1.27;;;0.45;;
33840;SDS011;20142;28.494;-16.312;2022-09-25T15:03:17;1.20;;;0.43;;
33840;SDS011;20142;28.494;-16.312;2022-09-25T15:13:33;1.85;;;0.60;;
33840;SDS011;20142;28.494;-16.312;2022-09-25T15:18:35;1.42;;;0.40;;
33840;SDS011;20142;28.494;-16.312;2022-09-25T15:23:40;1.10;;;0.40;;
33840;SDS011;20142;28.494;-16.312;2022-09-25T15:28:43;1.23;;;0.40;;
33840;SDS011;20142;28.494;-16.312;2022-09-25T15:39:29;0.98;;;0.20;;
33840;SDS011;20142;28.494;-16.312;2022-09-25T15:44:31;0.17;;;0.17;;
33840;SDS011;20142;28.494;-16.312;2022-09-25T15:54:42;0.60;;;0.50;;
33840;SDS011;20142;28.494;-16.312;2022-09-25T15:59:46;1.23;;;0.40;;
33840;SDS011;20142;28.494;-16.312;2022-09-25T16:05:12;0.95;;;0.80;;
33840;SDS011;20142;28.494;-16.312;2022-09-25T16:15:34;2.00;;;0.40;;
33840;SDS011;20142;28.494;-16.312;2022-09-25T16:20:44;2.05;;;0.40;;
33840;SDS011;20142;28.494;-16.312;2022-09-25T16:25:46;0.75;;;0.47;;
33840;SDS011;20142;28.494;-16.312;2022-09-25T16:30:50;0.50;;;0.40;;
33840;SDS011;20142;28.494;-16.312;2022-09-25T16:36:11;1.52;;;0.60;;
33840;SDS011;20142;28.494;-16.312;2022-09-25T16:41:18;0.57;;;0.57;;
33840;SDS011;20142;28.494;-16.312;2022-09-25T16:46:22;1.15;;;0.70;;
33840;SDS011;20142;28.494;-16.312;2022-09-25T16:51:24;2.05;;;1.17;;
33840;SDS011;20142;28.494;-16.312;2022-09-25T16:56:27;1.55;;;1.00;;
33840;SDS011;20142;28.494;-16.312;2022-09-25T17:01:31;1.20;;;0.73;;
33840;SDS011;20142;28.494;-16.312;2022-09-25T17:06:33;0.98;;;0.63;;
33840;SDS011;20142;28.494;-16.312;2022-09-25T17:11:40;2.95;;;0.70;;
33840;SDS011;20142;28.494;-16.312;2022-09-25T17:16:46;1.13;;;0.75;;
33840;SDS011;20142;28.494;-16.312;2022-09-25T17:21:48;1.23;;;0.60;;
33840;SDS011;20142;28.494;-16.312;2022-09-25T17:26:52;1.17;;;0.60;;
33840;SDS011;20142;28.494;-16.312;2022-09-25T17:31:54;0.40;;;0.40;;
33840;SDS011;20142;28.494;-16.312;2022-09-25T17:36:56;1.63;;;0.47;;
33840;SDS011;20142;28.494;-16.312;2022-09-25T17:41:57;0.32;;;0.30;;
33840;SDS011;20142;28.494;-16.312;2022-09-25T17:47:02;4.68;;;0.68;;
33840;SDS011;20142;28.494;-16.312;2022-09-25T17:52:04;1.85;;;0.63;;
33840;SDS011;20142;28.494;-16.312;2022-09-25T17:57:06;1.02;;;0.40;;
33840;SDS011;20142;28.494;-16.312;2022-09-25T18:02:09;1.63;;;0.43;;
33840;SDS011;20142;28.494;-16.312;2022-09-25T18:07:16;1.30;;;0.40;;
33840;SDS011;20142;28.494;-16.312;2022-09-25T18:12:18;1.58;;;0.50;;
33840;SDS011;20142;28.494;-16.312;2022-09-25T18:17:19;2.30;;;0.40;;
33840;SDS011;20142;28.494;-16.312;2022-09-25T18:22:21;1.17;;;0.40;;
33840;SDS011;20142;28.494;-16.312;2022-09-25T18:27:26;2.97;;;0.43;;
33840;SDS011;20142;28.494;-16.312;2022-09-25T18:32:31;1.00;;;0.52;;
33840;SDS011;20142;28.494;-16.312;2022-09-25T18:37:33;2.05;;;0.60;;
33840;SDS011;20142;28.494;-16.312;2022-09-25T18:42:36;2.50;;;0.40;;
33840;SDS011;20142;28.494;-16.312;2022-09-25T18:47:38;1.17;;;0.40;;
33840;SDS011;20142;28.494;-16.312;2022-09-25T18:52:41;2.17;;;0.38;;
33840;SDS011;20142;28.494;-16.312;2022-09-25T18:57:43;4.03;;;0.40;;
33840;SDS011;20142;28.494;-16.312;2022-09-25T19:02:44;0.50;;;0.28;;
33840;SDS011;20142;28.494;-16.312;2022-09-25T19:07:46;2.63;;;0.30;;
33840;SDS011;20142;28.494;-16.312;2022-09-25T19:12:48;0.82;;;0.28;;
33840;SDS011;20142;28.494;-16.312;2022-09-25T19:17:50;1.88;;;0.40;;
33840;SDS011;20142;28.494;-16.312;2022-09-25T19:27:04;57.05;;;1.25;;
33840;SDS011;20142;28.494;-16.312;2022-09-25T19:32:07;79.82;;;1.90;;
33840;SDS011;20142;28.494;-16.312;2022-09-25T19:37:11;38.15;;;1.15;;
33840;SDS011;20142;28.494;-16.312;2022-09-25T19:42:12;1.45;;;0.10;;
33840;SDS011;20142;28.494;-16.312;2022-09-25T19:47:14;0.50;;;0.30;;
33840;SDS011;20142;28.494;-16.312;2022-09-25T19:52:16;2.65;;;1.55;;
33840;SDS011;20142;28.494;-16.312;2022-09-25T19:57:20;3.58;;;1.27;;
33840;SDS011;20142;28.494;-16.312;2022-09-25T20:02:21;0.82;;;0.08;;
33840;SDS011;20142;28.494;-16.312;2022-09-25T20:07:23;1.23;;;0.20;;
33840;SDS011;20142;28.494;-16.312;2022-09-25T20:12:25;1.50;;;0.32;;
33840;SDS011;20142;28.494;-16.312;2022-09-25T20:17:26;1.55;;;0.70;;
33840;SDS011;20142;28.494;-16.312;2022-09-25T20:22:28;0.85;;;0.35;;
33840;SDS011;20142;28.494;-16.312;2022-09-25T20:27:31;1.10;;;0.20;;
33840;SDS011;20142;28.494;-16.312;2022-09-25T20:32:32;1.05;;;0.25;;
33840;SDS011;20142;28.494;-16.312;2022-09-25T20:37:34;1.10;;;0.20;;
33840;SDS011;20142;28.494;-16.312;2022-09-25T20:42:36;1.55;;;0.60;;
33840;SDS011;20142;28.494;-16.312;2022-09-25T20:47:38;2.67;;;0.40;;
33840;SDS011;20142;28.494;-16.312;2022-09-25T20:52:40;0.50;;;0.28;;
33840;SDS011;20142;28.494;-16.312;2022-09-25T20:57:43;0.52;;;0.20;;
33840;SDS011;20142;28.494;-16.312;2022-09-25T21:02:45;0.20;;;0.20;;
33840;SDS011;20142;28.494;-16.312;2022-09-25T21:07:46;2.50;;;0.40;;
33840;SDS011;20142;28.494;-16.312;2022-09-25T21:12:48;2.92;;;0.50;;
33840;SDS011;20142;28.494;-16.312;2022-09-25T21:17:52;1.27;;;0.30;;
33840;SDS011;20142;28.494;-16.312;2022-09-25T21:22:54;2.35;;;0.35;;
33840;SDS011;20142;28.494;-16.312;2022-09-25T21:27:56;0.32;;;0.10;;
33840;SDS011;20142;28.494;-16.312;2022-09-25T21:32:57;0.93;;;0.40;;
33840;SDS011;20142;28.494;-16.312;2022-09-25T21:37:59;0.20;;;0.10;;
33840;SDS011;20142;28.494;-16.312;2022-09-25T21:43:03;2.05;;;0.40;;
33840;SDS011;20142;28.494;-16.312;2022-09-25T21:48:04;4.03;;;0.68;;
33840;SDS011;20142;28.494;-16.312;2022-09-25T21:53:06;0.93;;;0.17;;
33840;SDS011;20142;28.494;-16.312;2022-09-25T21:58:07;1.00;;;0.20;;
33840;SDS011;20142;28.494;-16.312;2022-09-25T22:03:09;0.43;;;0.00;;
33840;SDS011;20142;28.494;-16.312;2022-09-25T22:08:11;0.55;;;0.00;;
33840;SDS011;20142;28.494;-16.312;2022-09-25T22:13:12;0.00;;;0.00;;
33840;SDS011;20142;28.494;-16.312;2022-09-25T22:18:14;0.47;;;0.10;;
33840;SDS011;20142;28.494;-16.312;2022-09-25T22:23:15;2.95;;;0.10;;
33840;SDS011;20142;28.494;-16.312;2022-09-25T22:28:18;1.85;;;0.20;;
33840;SDS011;20142;28.494;-16.312;2022-09-25T22:33:20;0.75;;;0.20;;
33840;SDS011;20142;28.494;-16.312;2022-09-25T22:38:22;1.10;;;0.10;;
33840;SDS011;20142;28.494;-16.312;2022-09-25T22:43:24;1.15;;;0.32;;
33840;SDS011;20142;28.494;-16.312;2022-09-25T22:48:25;0.43;;;0.10;;
33840;SDS011;20142;28.494;-16.312;2022-09-25T22:53:28;1.08;;;0.15;;
33840;SDS011;20142;28.494;-16.312;2022-09-25T22:58:31;3.70;;;0.28;;
33840;SDS011;20142;28.494;-16.312;2022-09-25T23:03:33;0.80;;;0.20;;
33840;SDS011;20142;28.494;-16.312;2022-09-25T23:08:35;0.30;;;0.10;;
33840;SDS011;20142;28.494;-16.312;2022-09-25T23:13:36;1.17;;;0.17;;
33840;SDS011;20142;28.494;-16.312;2022-09-25T23:18:38;0.32;;;0.10;;
33840;SDS011;20142;28.494;-16.312;2022-09-25T23:23:40;2.10;;;0.20;;
33840;SDS011;20142;28.494;-16.312;2022-09-25T23:28:41;0.80;;;0.20;;
33840;SDS011;20142;28.494;-16.312;2022-09-25T23:33:43;1.52;;;0.30;;
33840;SDS011;20142;28.494;-16.312;2022-09-25T23:38:46;1.48;;;0.28;;
33840;SDS011;20142;28.494;-16.312;2022-09-25T23:43:50;1.40;;;0.10;;
33840;SDS011;20142;28.494;-16.312;2022-09-25T23:48:54;1.42;;;0.10;;
33840;SDS011;20142;28.494;-16.312;2022-09-25T23:53:57;1.08;;;0.10;;
33840;SDS011;20142;28.494;-16.312;2022-09-25T23:59:01;0.55;;;0.17;;
